Date,TemperatureHighF,TemperatureAvgF,TemperatureLowF,DewpointHighF,DewpointAvgF,DewpointLowF,HumidityHigh,HumidityAvg,HumidityLow,PressureMaxIn,PressureMinIn,WindSpeedMaxMPH,WindSpeedAvgMPH,GustSpeedMaxMPH,PrecipitationSumIn
2013-11-1,79.8,73.8,69.4,71.9,70.3,68.0,97,89,75,29.98,29.74,18,2,18,0.70
2013-11-2,72.7,66.1,52.8,69.9,64.1,51.6,98,94,55,29.95,29.73,8,0,9,0.57
2013-11-3,67.2,54.2,44.8,51.7,46.7,43.0,97,79,44,30.29,29.94,14,1,14,0.00
2013-11-4,67.1,53.4,44.2,46.8,43.4,38.5,97,72,36,30.43,30.28,18,1,18,0.00
2013-11-5,65.2,53.7,42.3,59.5,50.3,40.2,96,89,76,30.43,30.31,13,3,13,0.01
2013-11-6,76.9,64.6,54.0,67.8,61.4,53.2,98,90,73,30.31,30.08,10,1,10,0.01
2013-11-7,78.1,67.8,60.5,68.3,64.9,58.5,99,91,68,30.08,29.93,12,1,12,0.00
2013-11-8,63.0,51.6,38.5,58.5,39.8,34.4,96,67,38,30.30,30.03,16,2,16,0.00
2013-11-9,63.5,50.9,38.0,55.8,46.5,36.9,97,86,62,30.34,30.23,9,0,9,0.00
2013-11-10,71.1,57.2,47.5,56.7,51.9,46.7,98,85,50,30.25,30.13,9,0,9,0.00
2013-11-11,67.8,53.5,45.5,53.4,46.7,40.4,98,80,53,30.29,30.16,11,1,11,0.00
2013-11-12,73.2,55.8,42.3,53.9,46.9,32.7,98,75,40,30.34,30.00,31,2,31,0.00
2013-11-13,50.2,39.5,29.8,34.1,28.1,21.5,92,66,37,30.51,30.34,19,4,19,0.00
2013-11-14,63.2,43.3,28.9,47.9,37.2,27.0,97,81,52,30.49,30.32,8,0,8,0.00
2013-11-15,63.5,55.1,41.8,60.4,53.6,40.8,98,95,87,30.32,30.14,4,0,6,0.00
2013-11-16,78.2,60.9,55.8,66.2,59.2,55.0,99,95,62,30.21,30.13,4,0,6,0.01
2013-11-17,78.2,65.6,54.5,72.7,64.4,53.9,99,96,82,30.18,29.99,7,0,7,0.07
2013-11-18,83.6,72.5,61.7,73.9,68.8,51.7,99,89,65,29.99,29.81,10,1,10,0.00
2013-11-19,63.5,53.7,42.2,51.7,40.8,36.7,93,64,40,30.19,29.91,15,2,15,0.00
2013-11-20,59.5,52.0,44.2,50.0,44.2,37.3,80,75,68,30.32,30.18,14,2,14,0.00
2013-11-21,72.1,59.1,52.2,62.1,54.6,47.1,98,85,67,30.38,30.29,13,2,13,0.00
2013-11-22,75.1,65.5,59.2,69.9,63.9,58.6,99,95,76,30.33,30.14,7,0,7,0.06
2013-11-23,69.8,63.9,57.8,67.8,62.9,55.2,99,96,91,30.14,29.99,10,1,10,0.02
2013-11-24,57.8,43.0,31.8,55.2,27.1,19.2,91,55,33,30.52,30.09,22,3,22,0.00
2013-11-25,52.8,41.3,30.5,43.1,28.2,13.8,85,60,41,30.52,30.25,14,1,14,0.00
2013-11-26,72.2,59.4,44.0,71.5,57.9,40.7,99,94,84,30.25,29.58,19,2,19,1.37
2013-11-27,70.6,54.3,37.2,69.1,52.5,35.1,98,94,87,30.21,29.49,22,3,22,0.12
2013-11-28,49.7,37.0,30.0,35.5,29.4,24.5,96,76,43,30.49,30.21,13,1,13,0.00
2013-11-29,59.0,38.4,30.5,40.0,33.0,29.5,97,84,44,30.53,30.44,12,1,12,0.01
2013-11-30,57.2,46.5,35.7,45.7,38.7,31.0,84,75,59,30.53,30.30,12,2,13,0.00